sensor_id;sensor_type;location;lat;lon;timestamp;pressure;altitude;pressure_sealevel;temperature;humidity
36248;BME280;22287;50.824;5.644;2023-03-20T00:03:49;101217.34;;;9.95;71.86
36248;BME280;22287;50.824;5.644;2023-03-20T00:06:18;101226.38;;;10.07;71.77
36248;BME280;22287;50.824;5.644;2023-03-20T00:08:46;101221.50;;;9.88;72.53
36248;BME280;22287;50.824;5.644;2023-03-20T00:13:59;101228.88;;;9.74;73.23
36248;BME280;22287;50.824;5.644;2023-03-20T00:16:52;101230.38;;;9.78;72.86
36248;BME280;22287;50.824;5.644;2023-03-20T00:19:21;101239.31;;;9.55;73.62
36248;BME280;22287;50.824;5.644;2023-03-20T00:21:52;101244.25;;;9.48;73.97
36248;BME280;22287;50.824;5.644;2023-03-20T00:24:20;101249.72;;;9.72;72.98
36248;BME280;22287;50.824;5.644;2023-03-20T00:26:49;101242.03;;;9.78;72.62
36248;BME280;22287;50.824;5.644;2023-03-20T00:29:25;101247.28;;;9.92;72.03
36248;BME280;22287;50.824;5.644;2023-03-20T00:31:54;101248.94;;;10.06;71.74
36248;BME280;22287;50.824;5.644;2023-03-20T00:34:23;101250.78;;;9.82;72.49
36248;BME280;22287;50.824;5.644;2023-03-20T00:36:52;101247.91;;;9.96;71.74
36248;BME280;22287;50.824;5.644;2023-03-20T00:39:19;101250.28;;;9.64;72.68
36248;BME280;22287;50.824;5.644;2023-03-20T00:41:59;101249.94;;;9.69;72.79
36248;BME280;22287;50.824;5.644;2023-03-20T00:44:43;101245.00;;;9.50;72.83
36248;BME280;22287;50.824;5.644;2023-03-20T00:47:23;101248.81;;;9.22;74.26
36248;BME280;22287;50.824;5.644;2023-03-20T00:49:52;101239.88;;;9.34;73.32
36248;BME280;22287;50.824;5.644;2023-03-20T00:52:20;101232.06;;;9.42;72.83
36248;BME280;22287;50.824;5.644;2023-03-20T00:54:49;101232.53;;;9.73;71.58
36248;BME280;22287;50.824;5.644;2023-03-20T00:57:40;101239.44;;;9.40;72.05
36248;BME280;22287;50.824;5.644;2023-03-20T01:00:22;101224.28;;;9.51;71.84
36248;BME280;22287;50.824;5.644;2023-03-20T01:02:52;101216.31;;;9.36;71.75
36248;BME280;22287;50.824;5.644;2023-03-20T01:05:24;101202.88;;;9.24;71.75
36248;BME280;22287;50.824;5.644;2023-03-20T01:07:52;101203.78;;;8.99;72.40
36248;BME280;22287;50.824;5.644;2023-03-20T01:10:23;101201.03;;;8.49;73.34
36248;BME280;22287;50.824;5.644;2023-03-20T01:12:53;101199.75;;;8.42;73.40
36248;BME280;22287;50.824;5.644;2023-03-20T01:15:24;101203.56;;;8.25;74.32
36248;BME280;22287;50.824;5.644;2023-03-20T01:17:52;101203.34;;;8.01;74.82
36248;BME280;22287;50.824;5.644;2023-03-20T01:20:25;101199.75;;;7.88;74.54
36248;BME280;22287;50.824;5.644;2023-03-20T01:22:53;101199.09;;;8.11;74.16
36248;BME280;22287;50.824;5.644;2023-03-20T01:25:20;101200.75;;;8.26;73.50
36248;BME280;22287;50.824;5.644;2023-03-20T01:27:51;101196.63;;;8.08;74.05
36248;BME280;22287;50.824;5.644;2023-03-20T01:30:22;101191.53;;;8.31;73.76
36248;BME280;22287;50.824;5.644;2023-03-20T01:32:50;101201.59;;;8.14;73.62
36248;BME280;22287;50.824;5.644;2023-03-20T01:35:23;101210.41;;;7.63;75.08
36248;BME280;22287;50.824;5.644;2023-03-20T01:37:51;101222.63;;;7.95;74.20
36248;BME280;22287;50.824;5.644;2023-03-20T01:40:34;101228.56;;;8.27;73.01
36248;BME280;22287;50.824;5.644;2023-03-20T01:43:13;101225.31;;;7.95;74.19
36248;BME280;22287;50.824;5.644;2023-03-20T01:45:53;101212.22;;;8.03;73.69
36248;BME280;22287;50.824;5.644;2023-03-20T01:48:24;101209.56;;;8.16;73.29
36248;BME280;22287;50.824;5.644;2023-03-20T01:50:53;101198.38;;;8.22;73.00
36248;BME280;22287;50.824;5.644;2023-03-20T01:53:26;101210.31;;;8.45;72.62
36248;BME280;22287;50.824;5.644;2023-03-20T01:55:59;101209.75;;;8.13;72.82
36248;BME280;22287;50.824;5.644;2023-03-20T01:58:44;101201.59;;;8.14;72.76
36248;BME280;22287;50.824;5.644;2023-03-20T02:01:13;101195.66;;;7.83;73.80
36248;BME280;22287;50.824;5.644;2023-03-20T02:03:46;101196.81;;;8.05;73.21
36248;BME280;22287;50.824;5.644;2023-03-20T02:06:38;101195.72;;;8.35;72.40
36248;BME280;22287;50.824;5.644;2023-03-20T02:09:15;101197.59;;;8.47;71.66
36248;BME280;22287;50.824;5.644;2023-03-20T02:11:45;101199.41;;;7.80;73.38
36248;BME280;22287;50.824;5.644;2023-03-20T02:14:16;101193.78;;;7.97;73.12
36248;BME280;22287;50.824;5.644;2023-03-20T02:17:07;101195.81;;;7.94;73.17
36248;BME280;22287;50.824;5.644;2023-03-20T02:27:38;101155.19;;;8.23;72.02
36248;BME280;22287;50.824;5.644;2023-03-20T02:33:36;101157.31;;;7.79;73.20
36248;BME280;22287;50.824;5.644;2023-03-20T02:39:05;101211.78;;;7.56;73.49
36248;BME280;22287;50.824;5.644;2023-03-20T02:41:51;101216.38;;;7.54;74.18
36248;BME280;22287;50.824;5.644;2023-03-20T02:44:33;101209.16;;;7.14;74.79
36248;BME280;22287;50.824;5.644;2023-03-20T02:52:51;101218.16;;;7.27;74.39
36248;BME280;22287;50.824;5.644;2023-03-20T02:58:01;101228.91;;;7.41;74.33
36248;BME280;22287;50.824;5.644;2023-03-20T03:00:38;101239.72;;;7.67;73.21
36248;BME280;22287;50.824;5.644;2023-03-20T03:03:17;101238.03;;;7.79;72.71
36248;BME280;22287;50.824;5.644;2023-03-20T03:05:54;101245.00;;;7.69;73.15
36248;BME280;22287;50.824;5.644;2023-03-20T03:08:26;101236.34;;;7.78;72.55
36248;BME280;22287;50.824;5.644;2023-03-20T03:11:02;101223.88;;;7.63;72.91
36248;BME280;22287;50.824;5.644;2023-03-20T03:13:34;101229.50;;;7.87;72.49
36248;BME280;22287;50.824;5.644;2023-03-20T03:16:10;101216.84;;;7.60;73.68
36248;BME280;22287;50.824;5.644;2023-03-20T03:18:39;101216.72;;;8.03;72.58
36248;BME280;22287;50.824;5.644;2023-03-20T03:21:10;101206.75;;;8.17;71.95
36248;BME280;22287;50.824;5.644;2023-03-20T03:23:46;101206.91;;;8.02;72.56
36248;BME280;22287;50.824;5.644;2023-03-20T03:26:20;101203.50;;;8.12;72.09
36248;BME280;22287;50.824;5.644;2023-03-20T03:28:55;101196.25;;;8.27;71.94
36248;BME280;22287;50.824;5.644;2023-03-20T03:31:23;101200.00;;;8.24;71.35
36248;BME280;22287;50.824;5.644;2023-03-20T03:33:54;101191.63;;;7.90;72.07
36248;BME280;22287;50.824;5.644;2023-03-20T03:36:39;101178.69;;;7.68;73.40
36248;BME280;22287;50.824;5.644;2023-03-20T03:44:47;101201.78;;;7.58;73.25
36248;BME280;22287;50.824;5.644;2023-03-20T03:47:58;101194.78;;;7.82;72.71
36248;BME280;22287;50.824;5.644;2023-03-20T03:50:36;101184.97;;;7.54;73.65
36248;BME280;22287;50.824;5.644;2023-03-20T03:53:09;101171.25;;;7.59;73.30
36248;BME280;22287;50.824;5.644;2023-03-20T03:55:42;101166.25;;;7.80;72.89
36248;BME280;22287;50.824;5.644;2023-03-20T03:58:18;101171.50;;;7.95;72.02
36248;BME280;22287;50.824;5.644;2023-03-20T04:00:48;101166.56;;;7.75;72.32
36248;BME280;22287;50.824;5.644;2023-03-20T04:03:20;101176.63;;;7.59;72.51
36248;BME280;22287;50.824;5.644;2023-03-20T04:05:51;101171.16;;;6.91;75.04
36248;BME280;22287;50.824;5.644;2023-03-20T04:08:21;101168.63;;;7.17;74.09
36248;BME280;22287;50.824;5.644;2023-03-20T04:10:49;101164.66;;;7.36;73.38
36248;BME280;22287;50.824;5.644;2023-03-20T04:13:16;101167.03;;;7.41;72.74
36248;BME280;22287;50.824;5.644;2023-03-20T04:15:43;101175.06;;;7.14;73.97
36248;BME280;22287;50.824;5.644;2023-03-20T04:18:14;101189.94;;;7.20;73.93
36248;BME280;22287;50.824;5.644;2023-03-20T04:20:46;101187.34;;;7.18;73.91
36248;BME280;22287;50.824;5.644;2023-03-20T04:23:15;101190.53;;;7.51;72.79
36248;BME280;22287;50.824;5.644;2023-03-20T04:25:42;101183.19;;;7.41;73.59
36248;BME280;22287;50.824;5.644;2023-03-20T04:28:09;101180.97;;;7.47;73.48
36248;BME280;22287;50.824;5.644;2023-03-20T04:30:53;101189.66;;;7.65;72.64
36248;BME280;22287;50.824;5.644;2023-03-20T04:33:51;101182.19;;;7.83;72.00
36248;BME280;22287;50.824;5.644;2023-03-20T04:36:53;101180.06;;;7.61;72.98
36248;BME280;22287;50.824;5.644;2023-03-20T04:39:27;101182.31;;;7.81;72.20
36248;BME280;22287;50.824;5.644;2023-03-20T04:41:54;101177.31;;;8.02;71.23
36248;BME280;22287;50.824;5.644;2023-03-20T04:44:23;101163.44;;;7.95;71.50
36248;BME280;22287;50.824;5.644;2023-03-20T04:46:49;101178.38;;;7.99;71.44
36248;BME280;22287;50.824;5.644;2023-03-20T04:49:16;101175.81;;;7.98;71.45
36248;BME280;22287;50.824;5.644;2023-03-20T04:51:43;101174.59;;;7.89;71.39
36248;BME280;22287;50.824;5.644;2023-03-20T04:54:12;101179.72;;;7.80;72.04
36248;BME280;22287;50.824;5.644;2023-03-20T04:56:41;101190.44;;;8.06;71.23
36248;BME280;22287;50.824;5.644;2023-03-20T04:59:16;101186.13;;;8.04;71.45
36248;BME280;22287;50.824;5.644;2023-03-20T05:01:43;101192.78;;;7.98;71.85
36248;BME280;22287;50.824;5.644;2023-03-20T05:04:10;101195.81;;;7.94;72.06
36248;BME280;22287;50.824;5.644;2023-03-20T05:06:51;101188.69;;;8.19;71.20
36248;BME280;22287;50.824;5.644;2023-03-20T05:09:40;101174.41;;;8.32;71.13
36248;BME280;22287;50.824;5.644;2023-03-20T05:12:08;101180.28;;;8.24;71.19
36248;BME280;22287;50.824;5.644;2023-03-20T05:15:04;101173.81;;;8.53;70.51
36248;BME280;22287;50.824;5.644;2023-03-20T05:17:52;101169.91;;;8.70;69.74
36248;BME280;22287;50.824;5.644;2023-03-20T05:21:04;101162.03;;;8.92;68.50
36248;BME280;22287;50.824;5.644;2023-03-20T05:24:07;101164.84;;;8.91;68.67
36248;BME280;22287;50.824;5.644;2023-03-20T05:27:04;101160.44;;;8.52;70.03
36248;BME280;22287;50.824;5.644;2023-03-20T05:30:14;101158.28;;;8.44;70.40
36248;BME280;22287;50.824;5.644;2023-03-20T05:33:20;101169.66;;;8.35;70.74
36248;BME280;22287;50.824;5.644;2023-03-20T05:35:59;101167.81;;;7.96;72.11
36248;BME280;22287;50.824;5.644;2023-03-20T05:38:55;101170.44;;;8.50;70.75
36248;BME280;22287;50.824;5.644;2023-03-20T05:41:39;101164.41;;;8.34;70.83
36248;BME280;22287;50.824;5.644;2023-03-20T05:44:24;101173.03;;;8.76;69.85
36248;BME280;22287;50.824;5.644;2023-03-20T05:47:09;101176.69;;;8.63;69.81
36248;BME280;22287;50.824;5.644;2023-03-20T05:50:11;101173.16;;;8.50;70.58
36248;BME280;22287;50.824;5.644;2023-03-20T05:53:00;101169.50;;;8.63;69.39
36248;BME280;22287;50.824;5.644;2023-03-20T05:55:34;101167.53;;;8.91;69.38
36248;BME280;22287;50.824;5.644;2023-03-20T05:58:22;101169.59;;;8.87;69.30
36248;BME280;22287;50.824;5.644;2023-03-20T06:01:03;101166.31;;;8.32;70.38
36248;BME280;22287;50.824;5.644;2023-03-20T06:03:59;101174.75;;;8.90;69.36
36248;BME280;22287;50.824;5.644;2023-03-20T06:06:52;101167.28;;;9.06;68.75
36248;BME280;22287;50.824;5.644;2023-03-20T06:09:34;101171.31;;;8.63;70.88
36248;BME280;22287;50.824;5.644;2023-03-20T06:12:06;101165.06;;;8.50;71.64
36248;BME280;22287;50.824;5.644;2023-03-20T06:14:33;101166.66;;;8.40;71.98
36248;BME280;22287;50.824;5.644;2023-03-20T06:17:04;101170.78;;;8.58;71.41
36248;BME280;22287;50.824;5.644;2023-03-20T06:19:32;101169.13;;;8.43;72.24
36248;BME280;22287;50.824;5.644;2023-03-20T06:21:59;101174.31;;;8.33;72.46
36248;BME280;22287;50.824;5.644;2023-03-20T06:24:39;101173.22;;;8.36;72.82
36248;BME280;22287;50.824;5.644;2023-03-20T06:27:14;101174.00;;;8.50;72.26
36248;BME280;22287;50.824;5.644;2023-03-20T06:29:44;101164.41;;;8.34;72.67
36248;BME280;22287;50.824;5.644;2023-03-20T06:32:14;101165.72;;;8.66;71.74
36248;BME280;22287;50.824;5.644;2023-03-20T06:34:58;101167.53;;;8.65;71.52
36248;BME280;22287;50.824;5.644;2023-03-20T06:37:25;101163.31;;;8.36;72.68
36248;BME280;22287;50.824;5.644;2023-03-20T06:39:59;101161.06;;;8.30;72.80
36248;BME280;22287;50.824;5.644;2023-03-20T06:42:27;101164.53;;;8.45;72.89
36248;BME280;22287;50.824;5.644;2023-03-20T06:44:54;101181.44;;;8.47;72.76
36248;BME280;22287;50.824;5.644;2023-03-20T06:47:54;101178.13;;;8.56;72.36
36248;BME280;22287;50.824;5.644;2023-03-20T06:50:21;101181.13;;;8.64;72.23
36248;BME280;22287;50.824;5.644;2023-03-20T06:52:49;101195.38;;;8.91;71.69
36248;BME280;22287;50.824;5.644;2023-03-20T06:55:33;101195.91;;;8.96;71.26
36248;BME280;22287;50.824;5.644;2023-03-20T06:58:00;101192.97;;;9.12;71.34
36248;BME280;22287;50.824;5.644;2023-03-20T07:00:28;101194.41;;;8.67;72.51
36248;BME280;22287;50.824;5.644;2023-03-20T07:02:56;101199.88;;;8.91;71.55
36248;BME280;22287;50.824;5.644;2023-03-20T07:05:26;101206.97;;;8.41;74.06
36248;BME280;22287;50.824;5.644;2023-03-20T07:07:55;101207.16;;;7.85;75.40
36248;BME280;22287;50.824;5.644;2023-03-20T07:10:22;101212.41;;;7.74;76.42
36248;BME280;22287;50.824;5.644;2023-03-20T07:12:51;101205.34;;;8.39;74.79
36248;BME280;22287;50.824;5.644;2023-03-20T07:15:18;101215.50;;;8.48;73.84
36248;BME280;22287;50.824;5.644;2023-03-20T07:17:46;101218.72;;;8.53;73.88
36248;BME280;22287;50.824;5.644;2023-03-20T07:20:13;101216.31;;;7.82;76.50
36248;BME280;22287;50.824;5.644;2023-03-20T07:22:40;101215.09;;;7.04;78.82
36248;BME280;22287;50.824;5.644;2023-03-20T07:25:27;101216.94;;;6.90;81.98
36248;BME280;22287;50.824;5.644;2023-03-20T07:28:08;101225.72;;;6.78;80.86
36248;BME280;22287;50.824;5.644;2023-03-20T07:30:38;101226.63;;;7.06;81.86
36248;BME280;22287;50.824;5.644;2023-03-20T07:33:06;101221.81;;;7.26;80.18
36248;BME280;22287;50.824;5.644;2023-03-20T07:35:34;101229.50;;;7.18;79.74
36248;BME280;22287;50.824;5.644;2023-03-20T07:38:02;101231.50;;;7.28;80.44
36248;BME280;22287;50.824;5.644;2023-03-20T07:40:29;101240.06;;;7.21;79.42
36248;BME280;22287;50.824;5.644;2023-03-20T07:43:04;101243.13;;;7.29;80.71
36248;BME280;22287;50.824;5.644;2023-03-20T07:45:50;101241.97;;;7.33;79.98
36248;BME280;22287;50.824;5.644;2023-03-20T07:48:18;101244.84;;;7.44;79.05
36248;BME280;22287;50.824;5.644;2023-03-20T07:50:45;101246.97;;;7.39;78.23
36248;BME280;22287;50.824;5.644;2023-03-20T07:53:12;101246.94;;;7.53;78.32
36248;BME280;22287;50.824;5.644;2023-03-20T07:55:39;101243.75;;;7.60;77.60
36248;BME280;22287;50.824;5.644;2023-03-20T07:58:09;101250.75;;;7.63;76.84
36248;BME280;22287;50.824;5.644;2023-03-20T08:00:36;101252.59;;;7.62;76.37
36248;BME280;22287;50.824;5.644;2023-03-20T08:03:03;101250.19;;;7.58;76.32
36248;BME280;22287;50.824;5.644;2023-03-20T08:05:32;101254.03;;;7.54;76.61
36248;BME280;22287;50.824;5.644;2023-03-20T08:07:59;101256.50;;;7.71;75.57
36248;BME280;22287;50.824;5.644;2023-03-20T08:10:26;101255.19;;;7.64;74.62
36248;BME280;22287;50.824;5.644;2023-03-20T08:12:53;101258.06;;;7.61;74.67
36248;BME280;22287;50.824;5.644;2023-03-20T08:15:21;101262.28;;;7.65;75.87
36248;BME280;22287;50.824;5.644;2023-03-20T08:17:47;101261.13;;;7.69;74.07
36248;BME280;22287;50.824;5.644;2023-03-20T08:20:15;101266.16;;;7.61;73.82
36248;BME280;22287;50.824;5.644;2023-03-20T08:22:43;101261.72;;;7.60;74.78
36248;BME280;22287;50.824;5.644;2023-03-20T08:25:11;101269.03;;;7.44;74.28
36248;BME280;22287;50.824;5.644;2023-03-20T08:27:37;101268.53;;;7.51;74.28
36248;BME280;22287;50.824;5.644;2023-03-20T08:30:05;101276.41;;;7.54;74.10
36248;BME280;22287;50.824;5.644;2023-03-20T08:32:32;101266.47;;;7.42;74.57
36248;BME280;22287;50.824;5.644;2023-03-20T08:34:59;101280.59;;;7.32;74.99
36248;BME280;22287;50.824;5.644;2023-03-20T08:37:26;101279.78;;;7.44;74.74
36248;BME280;22287;50.824;5.644;2023-03-20T08:39:53;101270.41;;;7.51;74.71
36248;BME280;22287;50.824;5.644;2023-03-20T08:42:20;101284.78;;;7.50;75.68
36248;BME280;22287;50.824;5.644;2023-03-20T08:44:47;101280.53;;;7.60;74.59
36248;BME280;22287;50.824;5.644;2023-03-20T08:47:14;101283.47;;;7.43;75.18
36248;BME280;22287;50.824;5.644;2023-03-20T08:49:41;101279.03;;;7.56;74.53
36248;BME280;22287;50.824;5.644;2023-03-20T08:52:09;101279.47;;;7.77;74.24
36248;BME280;22287;50.824;5.644;2023-03-20T08:54:36;101279.00;;;7.70;74.47
36248;BME280;22287;50.824;5.644;2023-03-20T08:57:03;101276.31;;;7.70;74.52
36248;BME280;22287;50.824;5.644;2023-03-20T08:59:29;101281.09;;;7.79;74.71
36248;BME280;22287;50.824;5.644;2023-03-20T09:01:57;101270.22;;;7.95;74.48
36248;BME280;22287;50.824;5.644;2023-03-20T09:04:24;101274.59;;;7.96;74.60
36248;BME280;22287;50.824;5.644;2023-03-20T09:06:51;101271.13;;;7.81;73.76
36248;BME280;22287;50.824;5.644;2023-03-20T09:09:18;101271.28;;;7.92;73.52
36248;BME280;22287;50.824;5.644;2023-03-20T09:11:47;101286.31;;;8.09;71.92
36248;BME280;22287;50.824;5.644;2023-03-20T09:14:14;101274.84;;;8.19;72.50
36248;BME280;22287;50.824;5.644;2023-03-20T09:16:41;101278.88;;;8.12;73.71
36248;BME280;22287;50.824;5.644;2023-03-20T09:19:08;101285.00;;;8.28;72.76
36248;BME280;22287;50.824;5.644;2023-03-20T09:21:35;101288.28;;;8.34;72.94
36248;BME280;22287;50.824;5.644;2023-03-20T09:24:03;101279.16;;;8.22;71.31
36248;BME280;22287;50.824;5.644;2023-03-20T09:26:30;101286.09;;;8.12;72.79
36248;BME280;22287;50.824;5.644;2023-03-20T09:28:57;101289.25;;;8.18;71.71
36248;BME280;22287;50.824;5.644;2023-03-20T09:31:23;101292.84;;;8.05;72.74
36248;BME280;22287;50.824;5.644;2023-03-20T09:33:50;101295.00;;;8.00;71.59
36248;BME280;22287;50.824;5.644;2023-03-20T09:36:17;101301.88;;;8.04;71.66
36248;BME280;22287;50.824;5.644;2023-03-20T09:38:44;101301.03;;;8.03;72.73
36248;BME280;22287;50.824;5.644;2023-03-20T09:41:21;101299.56;;;8.12;70.95
36248;BME280;22287;50.824;5.644;2023-03-20T09:43:54;101302.75;;;8.04;70.80
36248;BME280;22287;50.824;5.644;2023-03-20T09:47:02;101303.63;;;8.05;70.86
36248;BME280;22287;50.824;5.644;2023-03-20T09:52:31;101294.44;;;8.36;70.85
36248;BME280;22287;50.824;5.644;2023-03-20T09:55:05;101293.91;;;8.43;69.78
36248;BME280;22287;50.824;5.644;2023-03-20T09:57:38;101294.31;;;8.76;69.69
36248;BME280;22287;50.824;5.644;2023-03-20T10:00:16;101299.63;;;8.78;69.49
36248;BME280;22287;50.824;5.644;2023-03-20T10:03:01;101300.41;;;8.53;68.93
36248;BME280;22287;50.824;5.644;2023-03-20T10:05:34;101304.53;;;8.59;68.45
36248;BME280;22287;50.824;5.644;2023-03-20T10:08:05;101301.03;;;8.44;70.42
36248;BME280;22287;50.824;5.644;2023-03-20T10:10:48;101308.44;;;8.80;68.17
36248;BME280;22287;50.824;5.644;2023-03-20T10:19:22;101315.88;;;7.82;72.63
36248;BME280;22287;50.824;5.644;2023-03-20T10:22:06;101309.41;;;7.99;73.17
36248;BME280;22287;50.824;5.644;2023-03-20T10:24:54;101304.44;;;8.34;74.10
36248;BME280;22287;50.824;5.644;2023-03-20T10:27:24;101305.94;;;8.38;73.97
36248;BME280;22287;50.824;5.644;2023-03-20T10:32:48;101301.09;;;8.16;75.17
36248;BME280;22287;50.824;5.644;2023-03-20T10:38:37;101295.13;;;8.64;74.39
36248;BME280;22287;50.824;5.644;2023-03-20T10:41:14;101296.44;;;8.32;74.98
36248;BME280;22287;50.824;5.644;2023-03-20T10:43:58;101288.13;;;8.62;75.17
36248;BME280;22287;50.824;5.644;2023-03-20T10:46:43;101294.09;;;8.92;72.64
36248;BME280;22287;50.824;5.644;2023-03-20T10:49:39;101289.25;;;8.84;72.00
36248;BME280;22287;50.824;5.644;2023-03-20T10:52:28;101283.13;;;9.20;71.92
36248;BME280;22287;50.824;5.644;2023-03-20T10:55:02;101274.38;;;9.55;70.36
36248;BME280;22287;50.824;5.644;2023-03-20T10:57:33;101275.72;;;9.73;70.36
36248;BME280;22287;50.824;5.644;2023-03-20T11:00:21;101260.25;;;9.87;71.10
36248;BME280;22287;50.824;5.644;2023-03-20T11:02:49;101254.22;;;9.10;72.10
36248;BME280;22287;50.824;5.644;2023-03-20T11:08:00;101260.75;;;9.56;70.88
36248;BME280;22287;50.824;5.644;2023-03-20T11:10:31;101257.75;;;9.61;70.67
36248;BME280;22287;50.824;5.644;2023-03-20T11:13:15;101252.84;;;9.17;71.01
36248;BME280;22287;50.824;5.644;2023-03-20T11:16:17;101243.63;;;9.44;70.51
36248;BME280;22287;50.824;5.644;2023-03-20T11:19:07;101241.19;;;9.16;71.74
36248;BME280;22287;50.824;5.644;2023-03-20T11:21:48;101235.97;;;9.26;72.45
36248;BME280;22287;50.824;5.644;2023-03-20T11:26:52;101232.38;;;9.63;71.61
36248;BME280;22287;50.824;5.644;2023-03-20T11:29:29;101209.47;;;9.92;71.05
36248;BME280;22287;50.824;5.644;2023-03-20T11:34:54;101208.38;;;9.71;70.75
36248;BME280;22287;50.824;5.644;2023-03-20T11:37:26;101208.31;;;9.84;69.85
36248;BME280;22287;50.824;5.644;2023-03-20T11:40:23;101197.28;;;9.87;71.08
36248;BME280;22287;50.824;5.644;2023-03-20T11:43:02;101203.22;;;9.68;71.06
36248;BME280;22287;50.824;5.644;2023-03-20T11:45:42;101198.97;;;9.77;70.63
36248;BME280;22287;50.824;5.644;2023-03-20T11:48:22;101183.94;;;9.85;70.19
36248;BME280;22287;50.824;5.644;2023-03-20T11:51:02;101188.66;;;10.05;71.09
36248;BME280;22287;50.824;5.644;2023-03-20T11:53:34;101184.13;;;10.06;69.98
36248;BME280;22287;50.824;5.644;2023-03-20T11:56:05;101186.28;;;10.14;70.03
36248;BME280;22287;50.824;5.644;2023-03-20T11:58:35;101187.69;;;10.30;69.45
36248;BME280;22287;50.824;5.644;2023-03-20T12:01:04;101192.00;;;10.22;68.18
36248;BME280;22287;50.824;5.644;2023-03-20T12:03:44;101184.09;;;10.53;69.60
36248;BME280;22287;50.824;5.644;2023-03-20T12:06:20;101180.78;;;10.61;70.05
36248;BME280;22287;50.824;5.644;2023-03-20T12:08:55;101166.72;;;10.80;68.90
36248;BME280;22287;50.824;5.644;2023-03-20T12:14:05;101168.63;;;10.55;68.87
36248;BME280;22287;50.824;5.644;2023-03-20T12:16:35;101160.28;;;10.58;68.39
36248;BME280;22287;50.824;5.644;2023-03-20T12:19:11;101162.72;;;10.61;68.27
36248;BME280;22287;50.824;5.644;2023-03-20T12:21:58;101167.22;;;10.96;68.41
36248;BME280;22287;50.824;5.644;2023-03-20T12:24:36;101176.47;;;10.58;68.83
36248;BME280;22287;50.824;5.644;2023-03-20T12:29:40;101178.84;;;10.63;67.61
36248;BME280;22287;50.824;5.644;2023-03-20T12:32:25;101165.66;;;10.47;69.30
36248;BME280;22287;50.824;5.644;2023-03-20T12:35:17;101172.13;;;10.34;69.23
36248;BME280;22287;50.824;5.644;2023-03-20T12:37:46;101170.75;;;10.28;68.35
36248;BME280;22287;50.824;5.644;2023-03-20T12:40:17;101165.00;;;10.33;68.26
36248;BME280;22287;50.824;5.644;2023-03-20T12:43:02;101161.03;;;10.26;68.28
36248;BME280;22287;50.824;5.644;2023-03-20T12:45:39;101154.47;;;10.41;68.76
36248;BME280;22287;50.824;5.644;2023-03-20T12:57:07;101157.81;;;9.97;69.65
36248;BME280;22287;50.824;5.644;2023-03-20T13:02:33;101148.06;;;10.42;67.91
36248;BME280;22287;50.824;5.644;2023-03-20T13:05:25;101147.75;;;10.57;67.28
36248;BME280;22287;50.824;5.644;2023-03-20T13:08:24;101146.28;;;10.76;67.30
36248;BME280;22287;50.824;5.644;2023-03-20T13:11:47;101149.72;;;10.78;66.31
36248;BME280;22287;50.824;5.644;2023-03-20T13:17:27;101142.53;;;11.54;68.19
36248;BME280;22287;50.824;5.644;2023-03-20T13:29:00;101129.28;;;11.51;67.06
36248;BME280;22287;50.824;5.644;2023-03-20T13:34:37;101127.56;;;11.50;65.63
36248;BME280;22287;50.824;5.644;2023-03-20T13:45:33;101112.88;;;11.75;66.66
36248;BME280;22287;50.824;5.644;2023-03-20T14:03:54;101095.41;;;11.79;64.77
36248;BME280;22287;50.824;5.644;2023-03-20T14:08:58;101084.56;;;12.00;65.28
36248;BME280;22287;50.824;5.644;2023-03-20T14:11:27;101097.25;;;11.67;65.40
36248;BME280;22287;50.824;5.644;2023-03-20T14:14:38;101095.50;;;12.30;63.50
36248;BME280;22287;50.824;5.644;2023-03-20T14:19:39;101088.34;;;12.29;65.52
36248;BME280;22287;50.824;5.644;2023-03-20T14:22:14;101091.25;;;11.96;64.58
36248;BME280;22287;50.824;5.644;2023-03-20T14:24:47;101080.72;;;11.39;66.53
36248;BME280;22287;50.824;5.644;2023-03-20T14:27:18;101090.81;;;11.79;65.31
36248;BME280;22287;50.824;5.644;2023-03-20T14:38:45;101087.09;;;12.33;65.08
36248;BME280;22287;50.824;5.644;2023-03-20T14:41:25;101082.88;;;12.70;63.43
36248;BME280;22287;50.824;5.644;2023-03-20T14:44:04;101082.34;;;12.76;62.86
36248;BME280;22287;50.824;5.644;2023-03-20T14:49:51;101063.94;;;12.50;63.29
36248;BME280;22287;50.824;5.644;2023-03-20T14:57:45;101055.91;;;12.38;63.17
36248;BME280;22287;50.824;5.644;2023-03-20T15:00:23;101058.06;;;11.83;64.16
36248;BME280;22287;50.824;5.644;2023-03-20T15:03:07;101050.41;;;11.88;64.53
36248;BME280;22287;50.824;5.644;2023-03-20T15:05:55;101053.09;;;11.88;65.67
36248;BME280;22287;50.824;5.644;2023-03-20T15:08:26;101046.75;;;12.09;64.71
36248;BME280;22287;50.824;5.644;2023-03-20T15:10:59;101048.13;;;12.04;64.42
36248;BME280;22287;50.824;5.644;2023-03-20T15:13:28;101047.94;;;12.47;63.59
36248;BME280;22287;50.824;5.644;2023-03-20T15:16:02;101051.00;;;12.53;63.12
36248;BME280;22287;50.824;5.644;2023-03-20T15:18:39;101050.69;;;11.85;64.54
36248;BME280;22287;50.824;5.644;2023-03-20T15:21:33;101049.09;;;12.03;63.54
36248;BME280;22287;50.824;5.644;2023-03-20T15:24:00;101036.66;;;12.21;64.54
36248;BME280;22287;50.824;5.644;2023-03-20T15:26:31;101038.47;;;12.11;65.17
36248;BME280;22287;50.824;5.644;2023-03-20T15:29:06;101034.16;;;11.88;66.24
36248;BME280;22287;50.824;5.644;2023-03-20T15:31:35;101027.97;;;11.65;65.35
36248;BME280;22287;50.824;5.644;2023-03-20T15:34:06;101032.59;;;12.06;64.96
36248;BME280;22287;50.824;5.644;2023-03-20T15:36:35;101027.75;;;11.89;64.32
36248;BME280;22287;50.824;5.644;2023-03-20T15:39:21;101039.31;;;11.91;63.46
36248;BME280;22287;50.824;5.644;2023-03-20T15:42:02;101035.28;;;12.06;63.09
36248;BME280;22287;50.824;5.644;2023-03-20T15:44:35;101033.03;;;12.31;62.95
36248;BME280;22287;50.824;5.644;2023-03-20T15:49:37;101027.09;;;12.17;61.98
36248;BME280;22287;50.824;5.644;2023-03-20T15:54:48;101013.50;;;11.87;62.98
36248;BME280;22287;50.824;5.644;2023-03-20T15:57:30;101014.97;;;12.21;61.88
36248;BME280;22287;50.824;5.644;2023-03-20T16:00:04;101021.03;;;11.51;63.22